Time;durP1;ratioP1;P1;durP2;ratioP2;P2;SDS_P1;SDS_P2;PMS_P1;PMS_P2;Temp;Humidity;BMP_temperature;BMP_pressure;BME280_temperature;BME280_humidity;BME280_pressure;Samples;Min_cycle;Max_cycle;Signal;HPM_P1;HPM_P2
2023/05/11 00:01:24;;;;;;;;;;;;;;;23.34;100.00;98610.72;5009684;28;19925;-42
2023/05/11 00:03:50;;;;;;;;;;;;;;;22.36;100.00;98645.66;5011022;28;19928;-40
2023/05/11 00:06:15;;;;;;;;;;;;;;;23.28;100.00;98627.03;5013891;28;19925;-40
2023/05/11 00:08:40;;;;;;;;;;;;;;;23.36;100.00;98608.78;5012721;28;19917;-40
2023/05/11 00:11:08;;;;;;;;;;;;;;;23.36;100.00;98606.16;5012982;28;19925;-40
2023/05/11 00:13:33;;;;;;;;;;;;;;;23.29;100.00;98606.88;5010045;28;19921;-40
2023/05/11 00:15:58;;;;;;;;;;;;;;;23.37;100.00;98599.91;5010093;28;20963;-40
2023/05/11 00:18:24;;;;;;;;;;;;;;;23.03;100.00;98612.66;5010853;28;20018;-40
2023/05/11 00:20:49;;;;;;;;;;;;;;;23.19;100.00;98609.47;5013531;28;20008;-41
2023/05/11 00:23:15;;;;;;;;;;;;;;;23.58;100.00;98598.91;5012429;28;20016;-40
2023/05/11 00:25:40;;;;;;;;;;;;;;;22.21;100.00;98636.44;5009966;28;19983;-40
2023/05/11 00:28:06;;;;;;;;;;;;;;;22.10;100.00;98646.09;5014545;28;20396;-40
2023/05/11 00:30:32;;;;;;;;;;;;;;;21.93;100.00;98657.97;5012395;28;19952;-40
2023/05/11 00:32:57;;;;;;;;;;;;;;;21.96;100.00;98664.75;5009647;28;19991;-40
2023/05/11 00:35:22;;;;;;;;;;;;;;;21.85;100.00;98667.44;5011567;28;20015;-39
2023/05/11 00:37:47;;;;;;;;;;;;;;;21.95;100.00;98655.25;5009495;28;19920;-40
2023/05/11 00:40:13;;;;;;;;;;;;;;;21.46;100.00;98667.19;5011396;28;19924;-40
2023/05/11 00:42:38;;;;;;;;;;;;;;;21.57;100.00;98664.50;5010753;28;19960;-40
2023/05/11 00:45:03;;;;;;;;;;;;;;;21.56;100.00;98668.09;5010882;28;19956;-40
2023/05/11 00:47:29;;;;;;;;;;;;;;;20.47;100.00;98701.16;5012456;28;19920;-40
2023/05/11 00:49:54;;;;;;;;;;;;;;;20.87;100.00;98703.31;5011064;28;19920;-40
2023/05/11 00:52:20;;;;;;;;;;;;;;;21.55;100.00;98676.91;5007913;28;20337;-40
2023/05/11 00:54:46;;;;;;;;;;;;;;;21.62;100.00;98662.38;5011120;28;19917;-40
2023/05/11 00:57:11;;;;;;;;;;;;;;;21.39;100.00;98671.25;5012748;28;19917;-40
2023/05/11 00:59:37;;;;;;;;;;;;;;;21.50;100.00;98668.59;4993861;28;19932;-40
2023/05/11 01:02:02;;;;;;;;;;;;;;;20.11;100.00;98701.38;5009544;28;20427;-40
2023/05/11 01:04:29;;;;;;;;;;;;;;;20.73;100.00;98706.16;5011368;28;20212;-40
2023/05/11 01:07:10;;;;;;;;;;;;;;;21.38;100.00;98682.69;4991990;28;20007;-40
2023/05/11 01:10:07;;;;;;;;;;;;;;;21.33;100.00;98682.25;5014111;28;19984;-40
2023/05/11 01:12:33;;;;;;;;;;;;;;;21.70;100.00;98659.91;4972462;28;19948;-40
2023/05/11 01:14:58;;;;;;;;;;;;;;;20.91;100.00;98692.59;5012969;28;20514;-41
2023/05/11 01:17:39;;;;;;;;;;;;;;;19.29;100.00;98727.44;5011098;28;20347;-40
2023/05/11 01:20:06;;;;;;;;;;;;;;;20.82;100.00;98725.53;5007815;28;19916;-40
2023/05/11 01:22:38;;;;;;;;;;;;;;;21.15;100.00;98703.72;5010741;28;20032;-39
2023/05/11 01:25:10;;;;;;;;;;;;;;;20.89;100.00;98704.03;5010326;28;19968;-40
2023/05/11 01:27:35;;;;;;;;;;;;;;;21.58;100.00;98692.41;5011281;28;19925;-40
2023/05/11 01:30:00;;;;;;;;;;;;;;;22.92;100.00;98626.75;5012232;28;20003;-40
2023/05/11 01:32:26;;;;;;;;;;;;;;;22.32;100.00;98641.63;5009854;28;20725;-40
2023/05/11 01:34:55;;;;;;;;;;;;;;;22.20;100.00;98642.66;4992482;28;19916;-40
2023/05/11 01:37:21;;;;;;;;;;;;;;;22.82;100.00;98625.88;5010617;28;20012;-40
2023/05/11 01:39:54;;;;;;;;;;;;;;;23.26;100.00;98605.31;5007771;28;20759;-40
2023/05/11 01:42:20;;;;;;;;;;;;;;;23.27;100.00;98599.13;4991090;28;19916;-40
2023/05/11 01:44:46;;;;;;;;;;;;;;;23.34;100.00;98608.09;4989289;28;19921;-40
2023/05/11 01:47:11;;;;;;;;;;;;;;;23.29;100.00;98607.69;5009234;28;19921;-40
2023/05/11 01:49:37;;;;;;;;;;;;;;;23.32;100.00;98606.56;5010234;28;19964;-40
2023/05/11 01:52:03;;;;;;;;;;;;;;;23.34;100.00;98600.22;5006527;28;19960;-40
2023/05/11 01:54:29;;;;;;;;;;;;;;;23.30;100.00;98609.34;5009998;28;20443;-40
2023/05/11 01:56:54;;;;;;;;;;;;;;;23.36;100.00;98605.34;4991976;28;21811;-40
2023/05/11 01:59:19;;;;;;;;;;;;;;;23.40;100.00;98604.09;5006321;28;19949;-41
2023/05/11 02:01:44;;;;;;;;;;;;;;;23.32;100.00;98602.16;5007741;28;20006;-40
2023/05/11 02:04:10;;;;;;;;;;;;;;;23.36;100.00;98603.53;5008439;28;19921;-40
2023/05/11 02:06:35;;;;;;;;;;;;;;;23.33;100.00;98598.56;5010925;28;20255;-41
2023/05/11 02:09:00;;;;;;;;;;;;;;;23.33;100.00;98595.94;5009492;28;19963;-40
2023/05/11 02:11:26;;;;;;;;;;;;;;;23.31;100.00;98594.38;5013350;28;19971;-41
2023/05/11 02:13:51;;;;;;;;;;;;;;;23.23;100.00;98599.53;5011015;28;20016;-40
2023/05/11 02:16:16;;;;;;;;;;;;;;;23.25;100.00;98606.31;5012281;28;19984;-41
2023/05/11 02:18:41;;;;;;;;;;;;;;;23.17;100.00;98606.16;4992676;28;20011;-41
2023/05/11 02:21:07;;;;;;;;;;;;;;;23.11;100.00;98604.09;5013506;28;19921;-41
2023/05/11 02:23:32;;;;;;;;;;;;;;;23.25;100.00;98608.09;5009980;28;20293;-40
2023/05/11 02:25:57;;;;;;;;;;;;;;;23.21;100.00;98607.53;5012167;28;20236;-42
2023/05/11 02:28:22;;;;;;;;;;;;;;;22.53;100.00;98626.66;5009030;28;19968;-40
2023/05/11 02:30:49;;;;;;;;;;;;;;;22.41;100.00;98635.59;5011133;28;20031;-40
2023/05/11 02:33:19;;;;;;;;;;;;;;;21.73;100.00;98650.97;4992396;28;19940;-40
2023/05/11 02:35:44;;;;;;;;;;;;;;;22.57;100.00;98616.72;5008246;28;19921;-40
2023/05/11 02:38:10;;;;;;;;;;;;;;;22.87;100.00;98615.78;5012204;28;19960;-40
2023/05/11 02:40:38;;;;;;;;;;;;;;;21.78;100.00;98643.56;5011715;28;20013;-40
2023/05/11 02:43:10;;;;;;;;;;;;;;;22.30;100.00;98630.44;5008897;28;19925;-40
2023/05/11 02:45:36;;;;;;;;;;;;;;;22.86;100.00;98618.56;5009617;28;19921;-40
2023/05/11 02:48:04;;;;;;;;;;;;;;;22.45;100.00;98623.88;4994456;28;20039;-40
2023/05/11 02:50:29;;;;;;;;;;;;;;;22.01;100.00;98651.25;5010558;28;19920;-42
2023/05/11 02:52:55;;;;;;;;;;;;;;;22.55;100.00;98619.47;5010985;28;19937;-42
2023/05/11 02:55:21;;;;;;;;;;;;;;;22.78;100.00;98613.97;5010786;28;19921;-42
2023/05/11 02:57:46;;;;;;;;;;;;;;;22.83;100.00;98616.19;4994362;28;19928;-42
2023/05/11 03:00:12;;;;;;;;;;;;;;;22.72;100.00;98619.81;5011688;28;19940;-42
2023/05/11 03:02:37;;;;;;;;;;;;;;;22.79;100.00;98612.22;5009453;28;19917;-42
2023/05/11 03:05:03;;;;;;;;;;;;;;;21.58;100.00;98654.88;5011895;28;19921;-42
2023/05/11 03:07:28;;;;;;;;;;;;;;;22.48;100.00;98638.50;5012572;28;20008;-42
2023/05/11 03:09:54;;;;;;;;;;;;;;;22.60;100.00;98619.06;5010036;28;19921;-42
2023/05/11 03:12:20;;;;;;;;;;;;;;;22.02;100.00;98648.50;4991548;28;19925;-42
2023/05/11 03:14:45;;;;;;;;;;;;;;;22.04;100.00;98651.84;5006174;28;20403;-42
2023/05/11 03:17:11;;;;;;;;;;;;;;;21.45;100.00;98655.06;5010116;28;20425;-42
2023/05/11 03:19:36;;;;;;;;;;;;;;;22.13;100.00;98640.56;5007665;28;19920;-42
2023/05/11 03:22:01;;;;;;;;;;;;;;;22.53;100.00;98631.06;5006345;28;19991;-42
2023/05/11 03:24:26;;;;;;;;;;;;;;;22.45;100.00;98633.53;5009189;28;21623;-42
2023/05/11 03:26:55;;;;;;;;;;;;;;;22.63;100.00;98620.63;5011875;28;20353;-42
2023/05/11 03:29:20;;;;;;;;;;;;;;;22.71;100.00;98612.88;5008747;28;19917;-42
2023/05/11 03:31:45;;;;;;;;;;;;;;;22.84;100.00;98618.69;5011999;28;19971;-42
2023/05/11 03:34:10;;;;;;;;;;;;;;;22.31;100.00;98621.63;4992279;28;20006;-42
2023/05/11 03:36:35;;;;;;;;;;;;;;;22.59;100.00;98620.03;5012190;28;20020;-42
2023/05/11 03:39:01;;;;;;;;;;;;;;;22.82;100.00;98618.00;4991056;28;19927;-42
2023/05/11 03:41:26;;;;;;;;;;;;;;;22.85;100.00;98609.84;4991896;28;19925;-42
2023/05/11 03:43:52;;;;;;;;;;;;;;;22.86;100.00;98616.78;5007644;28;20333;-42
2023/05/11 03:46:18;;;;;;;;;;;;;;;22.72;100.00;98604.06;4992610;28;19917;-42
2023/05/11 03:48:43;;;;;;;;;;;;;;;22.29;100.00;98613.06;5008538;28;19921;-42
2023/05/11 03:51:08;;;;;;;;;;;;;;;22.51;100.00;98612.00;5009609;28;20369;-42
2023/05/11 03:53:33;;;;;;;;;;;;;;;22.72;100.00;98611.94;5011310;28;19932;-42
2023/05/11 03:55:59;;;;;;;;;;;;;;;22.38;100.00;98622.75;4990692;28;20055;-42
2023/05/11 03:58:24;;;;;;;;;;;;;;;22.21;100.00;98615.47;5010794;28;19925;-42
2023/05/11 04:00:49;;;;;;;;;;;;;;;22.21;100.00;98626.81;4990076;28;19917;-42
2023/05/11 04:03:15;;;;;;;;;;;;;;;22.29;100.00;98623.53;5010720;28;19917;-42
2023/05/11 04:05:40;;;;;;;;;;;;;;;22.66;100.00;98609.84;5009576;28;20062;-42
2023/05/11 04:08:05;;;;;;;;;;;;;;;22.73;100.00;98610.94;5011493;28;19925;-42
2023/05/11 04:10:30;;;;;;;;;;;;;;;22.67;100.00;98614.09;5010594;28;20460;-42
2023/05/11 04:12:56;;;;;;;;;;;;;;;22.72;100.00;98609.31;5010052;28;20393;-42
2023/05/11 04:15:21;;;;;;;;;;;;;;;22.64;100.00;98611.75;5010629;28;20451;-42
2023/05/11 04:17:47;;;;;;;;;;;;;;;22.73;100.00;98621.44;5009922;28;20342;-42
2023/05/11 04:20:12;;;;;;;;;;;;;;;22.75;100.00;98616.88;5007748;28;19952;-42
2023/05/11 04:22:37;;;;;;;;;;;;;;;22.43;100.00;98625.78;5012659;28;20294;-42
2023/05/11 04:25:03;;;;;;;;;;;;;;;22.76;100.00;98622.03;5012069;28;19917;-42
2023/05/11 04:27:31;;;;;;;;;;;;;;;21.98;100.00;98646.28;5011738;28;19929;-42
2023/05/11 04:29:56;;;;;;;;;;;;;;;22.33;100.00;98619.69;5011685;28;19921;-42
2023/05/11 04:32:22;;;;;;;;;;;;;;;21.78;100.00;98638.34;5008932;28;20809;-42
2023/05/11 04:34:47;;;;;;;;;;;;;;;21.29;100.00;98666.75;5010607;28;20596;-42
2023/05/11 04:37:12;;;;;;;;;;;;;;;20.38;100.00;98706.28;5010833;28;19974;-42
2023/05/11 04:39:38;;;;;;;;;;;;;;;22.32;100.00;98654.75;5009685;28;19921;-42
2023/05/11 04:42:03;;;;;;;;;;;;;;;22.73;100.00;98631.94;5012615;28;19948;-42
2023/05/11 04:44:28;;;;;;;;;;;;;;;22.39;100.00;98634.88;5011042;28;20080;-42
2023/05/11 04:46:54;;;;;;;;;;;;;;;22.19;100.00;98646.25;5011945;28;20015;-42
2023/05/11 04:49:19;;;;;;;;;;;;;;;20.15;100.00;98718.50;5010908;28;19921;-42
2023/05/11 04:51:44;;;;;;;;;;;;;;;21.61;100.00;98707.03;5012507;28;19931;-42
2023/05/11 04:54:10;;;;;;;;;;;;;;;20.92;100.00;98713.41;5009852;28;19931;-42
2023/05/11 04:56:39;;;;;;;;;;;;;;;21.57;100.00;98695.97;5009559;28;20012;-43
2023/05/11 04:59:04;;;;;;;;;;;;;;;19.74;100.00;98733.72;5011268;28;19921;-42
2023/05/11 05:01:29;;;;;;;;;;;;;;;18.52;100.00;98795.38;5007094;28;19971;-42
2023/05/11 05:03:55;;;;;;;;;;;;;;;19.98;100.00;98798.16;5011621;28;19921;-42
2023/05/11 05:06:20;;;;;;;;;;;;;;;20.45;100.00;98778.91;5012495;28;19961;-42
2023/05/11 05:08:45;;;;;;;;;;;;;;;21.80;100.00;98714.19;5012407;28;20019;-42
2023/05/11 05:11:10;;;;;;;;;;;;;;;20.95;100.00;98704.47;5009272;28;19971;-42
2023/05/11 05:13:36;;;;;;;;;;;;;;;21.76;100.00;98720.66;5010019;28;19952;-42
2023/05/11 05:16:01;;;;;;;;;;;;;;;21.51;100.00;98707.78;5008453;28;19917;-42
2023/05/11 05:18:26;;;;;;;;;;;;;;;21.44;100.00;98705.78;5009232;28;20007;-42
2023/05/11 05:20:51;;;;;;;;;;;;;;;21.43;100.00;98701.50;5012096;28;19917;-42
2023/05/11 05:23:16;;;;;;;;;;;;;;;20.74;100.00;98741.84;5010965;28;19928;-42
2023/05/11 05:25:42;;;;;;;;;;;;;;;19.73;100.00;98778.22;5012198;28;19925;-42
2023/05/11 05:28:07;;;;;;;;;;;;;;;19.81;100.00;98770.69;5011530;28;19956;-42
2023/05/11 05:30:32;;;;;;;;;;;;;;;20.47;100.00;98790.09;5010382;28;19978;-42
2023/05/11 05:32:57;;;;;;;;;;;;;;;19.62;100.00;98789.47;5008233;28;19924;-42
2023/05/11 05:35:22;;;;;;;;;;;;;;;20.70;100.00;98771.00;5009197;28;19928;-42
2023/05/11 05:37:48;;;;;;;;;;;;;;;21.89;100.00;98752.75;5011373;28;19917;-42
2023/05/11 05:40:14;;;;;;;;;;;;;;;21.70;100.00;98703.66;5012128;28;19921;-42
2023/05/11 05:42:39;;;;;;;;;;;;;;;19.99;100.00;98769.31;5012128;28;19979;-42
2023/05/11 05:45:04;;;;;;;;;;;;;;;20.51;100.00;98784.66;5010350;28;19921;-42
2023/05/11 05:47:30;;;;;;;;;;;;;;;20.16;100.00;98796.81;5012631;28;20585;-42
2023/05/11 05:49:55;;;;;;;;;;;;;;;19.14;100.00;98816.34;5010785;28;19962;-42
2023/05/11 05:52:20;;;;;;;;;;;;;;;18.63;100.00;98871.13;5011284;28;20776;-42
2023/05/11 05:54:45;;;;;;;;;;;;;;;19.20;100.00;98890.78;5009205;28;20677;-42
2023/05/11 05:57:11;;;;;;;;;;;;;;;20.37;100.00;98864.16;5011642;28;19921;-42
2023/05/11 05:59:36;;;;;;;;;;;;;;;19.76;100.00;98870.31;5011512;28;20492;-42
2023/05/11 06:02:01;;;;;;;;;;;;;;;20.15;100.00;98863.13;5005696;28;20043;-41
2023/05/11 06:04:26;;;;;;;;;;;;;;;19.36;100.00;98877.50;4989836;28;19924;-42
2023/05/11 06:06:51;;;;;;;;;;;;;;;19.46;100.00;98917.72;5009561;28;19994;-42
2023/05/11 06:09:17;;;;;;;;;;;;;;;20.25;100.00;98897.25;5010023;28;20020;-42
2023/05/11 06:11:42;;;;;;;;;;;;;;;19.01;100.00;98886.00;5010718;28;20420;-42
2023/05/11 06:14:07;;;;;;;;;;;;;;;19.20;100.00;98928.19;5010086;28;20448;-42
2023/05/11 06:16:32;;;;;;;;;;;;;;;18.69;100.00;98964.63;5010665;28;20373;-42
2023/05/11 06:18:58;;;;;;;;;;;;;;;18.15;100.00;98988.13;5010717;28;20860;-42
2023/05/11 06:21:23;;;;;;;;;;;;;;;18.96;100.00;99049.91;5011079;28;19921;-42
2023/05/11 06:23:48;;;;;;;;;;;;;;;18.78;100.00;99065.81;5009778;28;19979;-42
2023/05/11 06:26:13;;;;;;;;;;;;;;;19.10;100.00;99047.22;5009469;28;20011;-42
2023/05/11 06:28:39;;;;;;;;;;;;;;;18.52;100.00;99066.59;5009981;28;19921;-42
2023/05/11 06:31:04;;;;;;;;;;;;;;;18.74;100.00;99116.47;5008951;28;19932;-42
2023/05/11 06:33:29;;;;;;;;;;;;;;;18.19;100.00;99125.16;5010563;28;21949;-42
2023/05/11 06:35:54;;;;;;;;;;;;;;;18.21;100.00;99183.25;5009682;28;21119;-42
2023/05/11 06:38:20;;;;;;;;;;;;;;;18.34;100.00;99206.81;5021947;28;19921;-42
2023/05/11 06:40:45;;;;;;;;;;;;;;;19.29;100.00;99220.94;5008283;28;19952;-42
2023/05/11 06:43:10;;;;;;;;;;;;;;;18.77;100.00;99134.59;5011289;28;20031;-42
2023/05/11 06:45:36;;;;;;;;;;;;;;;19.68;100.00;99078.16;5010235;28;19963;-42
2023/05/11 06:48:02;;;;;;;;;;;;;;;19.31;100.00;99033.66;5011523;28;20000;-42
2023/05/11 06:50:27;;;;;;;;;;;;;;;18.36;100.00;99101.50;5014625;28;19971;-42
2023/05/11 06:52:53;;;;;;;;;;;;;;;18.24;100.00;99167.41;5012921;28;20476;-42
2023/05/11 06:55:18;;;;;;;;;;;;;;;18.07;100.00;99206.72;5013246;28;20485;-42
2023/05/11 06:57:43;;;;;;;;;;;;;;;19.15;100.00;99221.81;5014857;28;19928;-41
2023/05/11 07:00:09;;;;;;;;;;;;;;;19.89;100.00;99076.75;5012718;28;19996;-41
2023/05/11 07:02:34;;;;;;;;;;;;;;;17.92;100.00;99099.84;4989641;28;19924;-41
2023/05/11 07:04:59;;;;;;;;;;;;;;;18.16;100.00;99174.88;4991805;28;19944;-41
2023/05/11 07:07:24;;;;;;;;;;;;;;;18.15;100.00;99201.84;5013462;28;20044;-41
2023/05/11 07:09:50;;;;;;;;;;;;;;;18.19;100.00;99206.78;5013675;28;19921;-41
2023/05/11 07:12:15;;;;;;;;;;;;;;;18.79;100.00;99221.44;5012778;28;19968;-41
2023/05/11 07:14:41;;;;;;;;;;;;;;;19.85;100.00;99169.38;5011365;28;20048;-41
2023/05/11 07:17:06;;;;;;;;;;;;;;;19.31;100.00;99072.81;5011383;28;19920;-41
2023/05/11 07:19:31;;;;;;;;;;;;;;;20.52;100.00;99046.13;5014939;28;19921;-41
2023/05/11 07:21:57;;;;;;;;;;;;;;;20.02;100.00;98979.97;5011445;28;20011;-41
2023/05/11 07:24:22;;;;;;;;;;;;;;;20.89;100.00;98886.41;5011739;28;19952;-41
2023/05/11 07:26:48;;;;;;;;;;;;;;;19.96;100.00;98921.16;5011855;28;19917;-43
2023/05/11 07:29:14;;;;;;;;;;;;;;;20.46;100.00;98914.00;5011315;28;19925;-41
2023/05/11 07:31:39;;;;;;;;;;;;;;;20.09;100.00;98899.34;5009964;28;21724;-41
2023/05/11 07:34:04;;;;;;;;;;;;;;;20.27;100.00;98887.53;5009441;28;19921;-41
2023/05/11 07:36:30;;;;;;;;;;;;;;;21.18;100.00;98881.53;5011035;28;20383;-41
2023/05/11 07:38:56;;;;;;;;;;;;;;;19.23;100.00;98934.97;5010998;28;20461;-41
2023/05/11 07:41:25;;;;;;;;;;;;;;;19.21;100.00;99002.94;5008140;28;19916;-41
2023/05/11 07:43:50;;;;;;;;;;;;;;;19.79;100.00;98986.84;5008354;28;19917;-41
2023/05/11 07:46:16;;;;;;;;;;;;;;;21.89;100.00;98928.41;5011569;28;19971;-41
2023/05/11 07:48:41;;;;;;;;;;;;;;;20.23;100.00;98844.25;5014203;28;19994;-41
2023/05/11 07:51:06;;;;;;;;;;;;;;;19.77;100.00;98894.66;5012114;28;19925;-41
2023/05/11 07:53:31;;;;;;;;;;;;;;;20.72;100.00;98879.84;5012933;28;19917;-41
2023/05/11 07:55:58;;;;;;;;;;;;;;;19.93;100.00;98916.13;5008838;28;19917;-41
2023/05/11 07:58:23;;;;;;;;;;;;;;;18.90;100.00;98983.28;5011191;28;19925;-41
2023/05/11 08:00:49;;;;;;;;;;;;;;;19.16;100.00;99035.53;5007977;28;19997;-41
2023/05/11 08:03:14;;;;;;;;;;;;;;;18.95;100.00;99056.03;5007524;28;20396;-41
2023/05/11 08:05:39;;;;;;;;;;;;;;;19.69;100.00;99022.41;5009086;28;19984;-41
2023/05/11 08:08:05;;;;;;;;;;;;;;;19.48;100.00;99051.66;5011386;28;19920;-41
2023/05/11 08:10:30;;;;;;;;;;;;;;;19.40;100.00;99070.44;5012245;28;19920;-41
2023/05/11 08:12:56;;;;;;;;;;;;;;;19.71;100.00;99093.69;5011647;28;19923;-41
2023/05/11 08:15:21;;;;;;;;;;;;;;;19.32;100.00;99035.34;5010771;28;20500;-41
2023/05/11 08:17:46;;;;;;;;;;;;;;;20.15;100.00;99000.88;5011007;28;19966;-41
2023/05/11 08:20:12;;;;;;;;;;;;;;;20.79;100.00;98971.81;5011341;28;20004;-41
2023/05/11 08:22:37;;;;;;;;;;;;;;;20.63;100.00;98923.22;5009754;28;19967;-41
2023/05/11 08:25:02;;;;;;;;;;;;;;;20.51;100.00;98921.50;5010446;28;19966;-41
2023/05/11 08:27:27;;;;;;;;;;;;;;;20.62;100.00;98933.84;5009818;28;19923;-41
2023/05/11 08:29:53;;;;;;;;;;;;;;;19.92;100.00;98935.38;5007491;28;19927;-41
2023/05/11 08:32:19;;;;;;;;;;;;;;;19.49;100.00;98933.16;5011197;28;19941;-41
2023/05/11 08:34:44;;;;;;;;;;;;;;;19.92;100.00;98931.94;5008901;28;20635;-41
2023/05/11 08:37:09;;;;;;;;;;;;;;;19.95;100.00;98969.13;5010212;28;19996;-42
2023/05/11 08:39:35;;;;;;;;;;;;;;;20.65;100.00;98959.75;5011780;28;19983;-41
2023/05/11 08:42:01;;;;;;;;;;;;;;;21.13;100.00;98888.94;5010376;28;19920;-41
2023/05/11 08:44:26;;;;;;;;;;;;;;;19.31;100.00;98940.50;5006925;28;19921;-41
2023/05/11 08:46:52;;;;;;;;;;;;;;;19.31;100.00;98989.28;4990706;28;19951;-41
2023/05/11 08:49:17;;;;;;;;;;;;;;;18.95;100.00;99032.56;5009852;28;19921;-41
2023/05/11 08:51:43;;;;;;;;;;;;;;;18.92;100.00;99051.03;4989522;28;19920;-41
2023/05/11 08:54:08;;;;;;;;;;;;;;;19.78;100.00;99034.84;5007474;28;20638;-42
2023/05/11 08:56:33;;;;;;;;;;;;;;;20.48;100.00;98964.44;5010211;28;19931;-41
2023/05/11 08:58:58;;;;;;;;;;;;;;;20.48;100.00;98922.56;4991424;28;19932;-41
2023/05/11 09:01:24;;;;;;;;;;;;;;;19.47;100.00;98976.81;5005470;28;20015;-41
2023/05/11 09:03:49;;;;;;;;;;;;;;;19.71;100.00;99017.91;5006937;28;19925;-41
2023/05/11 09:06:14;;;;;;;;;;;;;;;20.00;100.00;98985.34;5009800;28;19921;-42
2023/05/11 09:08:40;;;;;;;;;;;;;;;19.93;100.00;99020.69;5010653;28;20102;-41
2023/05/11 09:11:05;;;;;;;;;;;;;;;20.00;100.00;98998.41;5006468;28;20255;-41
2023/05/11 09:13:30;;;;;;;;;;;;;;;20.55;100.00;98946.50;5007478;28;19921;-41
2023/05/11 09:15:56;;;;;;;;;;;;;;;19.86;100.00;98933.19;5006879;28;20203;-42
2023/05/11 09:18:21;;;;;;;;;;;;;;;22.01;100.00;98880.25;5010054;28;19925;-42
2023/05/11 09:20:46;;;;;;;;;;;;;;;21.29;100.00;98846.66;4989812;28;19921;-42
2023/05/11 09:23:16;;;;;;;;;;;;;;;21.28;100.00;98848.44;5007712;28;19921;-41
2023/05/11 09:25:41;;;;;;;;;;;;;;;20.91;100.00;98849.66;5010114;28;19966;-42
2023/05/11 09:28:07;;;;;;;;;;;;;;;21.89;100.00;98820.91;5007653;28;19925;-42
2023/05/11 09:30:32;;;;;;;;;;;;;;;22.83;100.00;98758.84;4989844;28;20056;-42
2023/05/11 09:32:58;;;;;;;;;;;;;;;20.96;100.00;98831.78;5009166;28;20412;-42
2023/05/11 09:35:24;;;;;;;;;;;;;;;20.91;100.00;98854.88;5006621;28;20306;-42
2023/05/11 09:38:19;;;;;;;;;;;;;;;22.72;100.00;98761.56;5008854;28;19917;-42
2023/05/11 09:40:51;;;;;;;;;;;;;;;23.21;100.00;98709.19;4999098;28;19928;-42
2023/05/11 09:43:20;;;;;;;;;;;;;;;22.71;100.00;98717.88;5009175;28;19997;-42
2023/05/11 09:45:46;;;;;;;;;;;;;;;21.89;100.00;98732.59;5002783;28;19947;-42
2023/05/11 09:48:33;;;;;;;;;;;;;;;21.41;100.00;98758.44;5010601;28;19925;-42
2023/05/11 09:51:00;;;;;;;;;;;;;;;21.60;100.00;98753.38;5010083;28;19925;-42
2023/05/11 09:53:36;;;;;;;;;;;;;;;22.30;100.00;98744.06;5012310;28;20070;-42
2023/05/11 09:56:01;;;;;;;;;;;;;;;25.59;100.00;98663.13;5008807;28;20979;-43
2023/05/11 09:58:32;;;;;;;;;;;;;;;21.23;100.00;98751.09;5007497;28;20008;-42
2023/05/11 10:00:57;;;;;;;;;;;;;;;21.61;100.00;98767.31;5002830;28;20188;-42
2023/05/11 10:03:24;;;;;;;;;;;;;;;21.70;100.00;98764.75;5006792;28;20011;-42
2023/05/11 10:05:56;;;;;;;;;;;;;;;22.08;100.00;98750.28;5007064;28;19984;-42
2023/05/11 10:08:33;;;;;;;;;;;;;;;21.97;100.00;98750.34;5010058;28;20525;-42
2023/05/11 10:10:58;;;;;;;;;;;;;;;21.81;100.00;98765.69;4990190;28;20297;-42
2023/05/11 10:13:23;;;;;;;;;;;;;;;20.95;100.00;98830.13;5010661;28;20239;-42
2023/05/11 10:15:50;;;;;;;;;;;;;;;21.08;100.00;98802.06;5008586;28;20563;-42
2023/05/11 10:18:15;;;;;;;;;;;;;;;21.08;100.00;98788.97;5007999;28;20035;-42
2023/05/11 10:20:41;;;;;;;;;;;;;;;20.78;100.00;98808.72;5007599;28;20615;-42
2023/05/11 10:23:06;;;;;;;;;;;;;;;20.82;100.00;98814.53;5011775;28;19975;-42
2023/05/11 10:25:32;;;;;;;;;;;;;;;21.09;100.00;98842.97;5011075;28;20290;-42
2023/05/11 10:27:57;;;;;;;;;;;;;;;21.69;100.00;98804.19;5008889;28;20007;-42
2023/05/11 10:30:22;;;;;;;;;;;;;;;21.71;100.00;98771.69;5012906;28;19931;-42
2023/05/11 10:32:48;;;;;;;;;;;;;;;23.08;100.00;98709.44;5013258;28;19924;-42
2023/05/11 10:35:13;;;;;;;;;;;;;;;21.64;100.00;98760.00;5012969;28;20063;-42
2023/05/11 10:37:39;;;;;;;;;;;;;;;23.36;100.00;98718.31;5014099;28;19921;-42
2023/05/11 10:40:06;;;;;;;;;;;;;;;23.63;100.00;98683.47;5013648;28;19975;-42
2023/05/11 10:42:38;;;;;;;;;;;;;;;21.95;100.00;98720.78;5014545;28;19917;-42
2023/05/11 10:45:03;;;;;;;;;;;;;;;21.63;100.00;98753.13;4991954;28;19955;-42
2023/05/11 10:47:31;;;;;;;;;;;;;;;22.20;100.00;98755.47;5011709;28;20012;-42
2023/05/11 10:49:56;;;;;;;;;;;;;;;22.37;100.00;98730.44;5010160;28;19928;-42
2023/05/11 10:52:24;;;;;;;;;;;;;;;22.02;100.00;98732.44;5012461;28;20297;-42
2023/05/11 10:54:50;;;;;;;;;;;;;;;21.97;100.00;98729.38;5012519;28;19920;-42
2023/05/11 10:57:24;;;;;;;;;;;;;;;21.98;100.00;98715.28;5012449;28;20962;-42
2023/05/11 11:00:08;;;;;;;;;;;;;;;22.84;100.00;98707.97;5011991;28;19917;-42
2023/05/11 11:02:34;;;;;;;;;;;;;;;23.13;100.00;98662.59;5006488;28;19921;-42
2023/05/11 11:05:04;;;;;;;;;;;;;;;22.78;100.00;98682.25;5011871;28;19929;-41
2023/05/11 11:07:29;;;;;;;;;;;;;;;22.82;100.00;98714.31;5011322;28;19960;-41
2023/05/11 11:10:06;;;;;;;;;;;;;;;22.92;100.00;98695.00;5012657;28;20634;-41
2023/05/11 11:12:33;;;;;;;;;;;;;;;22.78;100.00;98705.88;5009628;28;19925;-41
2023/05/11 11:15:05;;;;;;;;;;;;;;;23.09;100.00;98680.41;5014519;28;20027;-41
2023/05/11 11:17:31;;;;;;;;;;;;;;;24.28;100.00;98652.03;5011908;28;19928;-41
2023/05/11 11:19:57;;;;;;;;;;;;;;;23.65;100.00;98639.47;5013133;28;19921;-41
2023/05/11 11:22:34;;;;;;;;;;;;;;;23.20;100.00;98684.72;4994790;28;20123;-41
2023/05/11 11:25:20;;;;;;;;;;;;;;;23.56;100.00;98664.78;5010581;28;20002;-41
2023/05/11 11:27:48;;;;;;;;;;;;;;;25.49;100.00;98630.78;4979174;28;19921;-41
2023/05/11 11:30:17;;;;;;;;;;;;;;;24.01;100.00;98642.28;5012955;28;19928;-41
2023/05/11 11:32:42;;;;;;;;;;;;;;;24.54;100.00;98622.44;5009426;28;19929;-41
2023/05/11 11:35:27;;;;;;;;;;;;;;;24.01;100.00;98634.41;5008831;28;19959;-41
2023/05/11 11:38:00;;;;;;;;;;;;;;;22.04;100.00;98720.03;5013773;28;19917;-41
2023/05/11 11:40:35;;;;;;;;;;;;;;;23.44;100.00;98672.94;5012479;28;19952;-41
2023/05/11 11:43:19;;;;;;;;;;;;;;;22.79;100.00;98702.31;5008176;28;20924;-41
2023/05/11 11:45:52;;;;;;;;;;;;;;;21.88;100.00;98757.19;5008852;28;20221;-41
2023/05/11 11:48:20;;;;;;;;;;;;;;;22.36;100.00;98765.53;5011587;28;19921;-41
2023/05/11 11:50:46;;;;;;;;;;;;;;;23.29;100.00;98733.81;5003625;28;19921;-41
2023/05/11 11:53:31;;;;;;;;;;;;;;;21.58;100.00;98764.94;5011090;28;20183;-41
2023/05/11 11:55:57;;;;;;;;;;;;;;;22.44;100.00;98811.16;5011424;28;20331;-41
2023/05/11 11:58:40;;;;;;;;;;;;;;;21.62;100.00;98816.13;5011656;28;19921;-41
2023/05/11 12:01:06;;;;;;;;;;;;;;;21.57;100.00;98792.91;5008780;28;19975;-41
2023/05/11 12:03:32;;;;;;;;;;;;;;;21.68;100.00;98797.28;5010285;28;19920;-41
2023/05/11 12:05:59;;;;;;;;;;;;;;;23.54;100.00;98739.50;5009893;28;19921;-41
2023/05/11 12:08:24;;;;;;;;;;;;;;;24.07;100.00;98733.81;5009160;28;19927;-41
2023/05/11 12:10:53;;;;;;;;;;;;;;;23.03;100.00;98730.84;5010294;28;19917;-41
2023/05/11 12:13:18;;;;;;;;;;;;;;;23.15;100.00;98721.06;5012001;28;19932;-41
2023/05/11 12:15:43;;;;;;;;;;;;;;;22.79;100.00;98736.44;4993632;28;20504;-41
2023/05/11 12:18:19;;;;;;;;;;;;;;;23.10;100.00;98729.34;5010941;28;20469;-41
2023/05/11 12:20:44;;;;;;;;;;;;;;;22.68;100.00;98747.84;5010869;28;20457;-41
2023/05/11 12:23:09;;;;;;;;;;;;;;;22.65;100.00;98763.03;5009706;28;20007;-41
2023/05/11 12:25:35;;;;;;;;;;;;;;;22.16;100.00;98743.56;5007944;28;19925;-41
2023/05/11 12:28:01;;;;;;;;;;;;;;;22.16;100.00;98746.19;5011257;28;19921;-42
2023/05/11 12:30:30;;;;;;;;;;;;;;;23.22;100.00;98726.59;5010598;28;20658;-41
2023/05/11 12:32:55;;;;;;;;;;;;;;;22.77;100.00;98706.84;5010143;28;19929;-41